シンガポール/チャンギ の空港の天気 - METARとTAF

シンガポール・チャンギ国際空港 ( WSSS / SIN ) - シンガポール Changi
飛行場実況気象(Metar)
観測時間01/23 13:30 SGT (01/23 05:30 UTC)
風向・風速北 3m/s
視程10km以上
天気現象
少しの雲 雲底高度 430m
少しの雲 雲底高度 460m
全天の4割程度の雲 雲底高度 9140m
気温29℃
湿度79%
気圧1007hPa
METARWSSS 230530Z VRB06KT 9999 FEW014CB FEW015TCU SCT300 29/25 Q1007 NOSIG
過去の天気等 Google飛行場航空写真 Wunderground天気予報

過去48時間のMETAR

飛行場予報(TAF)
発表時間: 1/23 13:00 SGT (1/23 05:00 UTC)
予報対象時間: 23日14時 SGT ~ 24日20時 SGT
風向・風速北西 4m/s
視程10km以上
少しの積乱雲 雲底高度 550m
全天の4割程度の雲 雲底高度 610m
23日14時 SGT ~ 23日18時 SGT に一時的に
視程3,000m
天気現象雷雨
少しの積乱雲 雲底高度 370m
全天の8割程度の雲 雲底高度 460m
24日14時 SGT ~ 24日18時 SGT に一時的に
視程3,000m
天気現象雷雨
少しの積乱雲 雲底高度 370m
全天の8割程度の雲 雲底高度 460m
TAF WSSS 230500Z 2306/2412 32008KT 9999 FEW018CB SCT020
TEMPO 2306/2310 3000 TSRA FEW012CB BKN015
TEMPO 2406/2410 3000 TSRA FEW012CB BKN015